createdAt,value
2023-03-21T00:00:20.144Z,10.19
2023-03-21T00:01:04.774Z,10.11
2023-03-21T00:02:24.303Z,10.11
2023-03-21T00:03:02.156Z,10.16
2023-03-21T00:05:38.108Z,10.17
2023-03-21T00:06:17.346Z,10.16
2023-03-21T00:06:55.467Z,10.17
2023-03-21T00:07:43.963Z,10.18
2023-03-21T00:08:26.048Z,10.21
2023-03-21T00:09:05.291Z,10.18
2023-03-21T00:09:47.336Z,10.14
2023-03-21T00:11:05.774Z,10.21
2023-03-21T00:12:11.516Z,10.17
2023-03-21T00:13:28.777Z,10.18
2023-03-21T00:14:33.017Z,10.22
2023-03-21T00:15:13.225Z,10.23
2023-03-21T00:16:13.753Z,10.21
2023-03-21T00:17:04.012Z,10.26
2023-03-21T00:17:44.935Z,10.26
2023-03-21T00:18:24.721Z,10.22
2023-03-21T00:19:09.835Z,10.21
2023-03-21T00:19:51.197Z,10.22
2023-03-21T00:22:06.663Z,10.30
2023-03-21T00:22:49.368Z,10.24
2023-03-21T00:23:29.587Z,10.26
2023-03-21T00:24:08.264Z,10.23
2023-03-21T00:24:55.232Z,10.24
2023-03-21T00:25:41.830Z,10.23
2023-03-21T00:26:22.586Z,10.30
2023-03-21T00:27:26.480Z,10.33
2023-03-21T00:28:08.408Z,10.34
2023-03-21T00:28:50.423Z,10.30
2023-03-21T00:29:32.865Z,10.27
2023-03-21T00:30:12.833Z,10.24
2023-03-21T00:30:50.961Z,10.29
2023-03-21T00:31:30.307Z,10.34
2023-03-21T00:33:42.654Z,10.28
2023-03-21T00:34:31.658Z,10.24
2023-03-21T00:36:06.183Z,10.30
2023-03-21T00:38:07.970Z,10.32
2023-03-21T00:38:50.168Z,10.28
2023-03-21T00:39:29.205Z,10.26
2023-03-21T00:40:25.427Z,10.30
2023-03-21T00:41:18.906Z,10.36
2023-03-21T00:42:05.899Z,10.36
2023-03-21T00:42:38.429Z,10.32
2023-03-21T00:43:57.578Z,10.28
2023-03-21T00:44:37.058Z,10.29
2023-03-21T00:45:41.572Z,10.29
2023-03-21T00:47:00.575Z,10.32
2023-03-21T00:47:53.099Z,10.29
2023-03-21T00:48:32.063Z,10.30
2023-03-21T00:49:12.553Z,10.31
2023-03-21T00:51:11.976Z,10.33
2023-03-21T00:51:51.847Z,10.37
2023-03-21T00:52:40.168Z,10.41
2023-03-21T00:53:19.918Z,10.35
2023-03-21T00:54:08.216Z,10.31
2023-03-21T00:55:41.369Z,10.37
2023-03-21T00:56:21.313Z,10.41
2023-03-21T00:57:02.822Z,10.44
2023-03-21T00:58:30.739Z,10.43
2023-03-21T00:59:10.868Z,10.42
2023-03-21T01:01:16.305Z,10.43
2023-03-21T01:02:05.854Z,10.44
2023-03-21T01:03:01.280Z,10.44
2023-03-21T01:03:51.041Z,10.39
2023-03-21T01:04:39.084Z,10.42
2023-03-21T01:05:39.781Z,10.43
2023-03-21T01:06:19.795Z,10.45
2023-03-21T01:07:37.602Z,10.51
2023-03-21T01:08:26.857Z,10.53
2023-03-21T01:09:13.043Z,10.51
2023-03-21T01:09:55.359Z,10.50
2023-03-21T01:11:23.967Z,10.53
2023-03-21T01:12:03.924Z,10.51
2023-03-21T01:12:50.843Z,10.55
2023-03-21T01:13:34.611Z,10.56
2023-03-21T01:14:22.504Z,10.60
2023-03-21T01:15:07.309Z,10.61
2023-03-21T01:15:55.274Z,10.65
2023-03-21T01:16:58.436Z,10.63
2023-03-21T01:18:28.702Z,10.64
2023-03-21T01:19:09.238Z,10.66
2023-03-21T01:19:59.370Z,10.67
2023-03-21T01:20:43.425Z,10.69
2023-03-21T01:22:00.811Z,10.67
2023-03-21T01:22:40.695Z,10.68
2023-03-21T01:23:56.823Z,10.71
2023-03-21T01:24:53.838Z,10.77
2023-03-21T01:25:37.436Z,10.79
2023-03-21T01:26:25.189Z,10.80
2023-03-21T01:27:04.420Z,10.82
2023-03-21T01:27:47.283Z,10.84
2023-03-21T01:28:26.075Z,10.84
2023-03-21T01:29:14.326Z,10.88
2023-03-21T01:30:43.098Z,10.90
2023-03-21T01:31:24.538Z,10.91
2023-03-21T01:32:12.029Z,10.90
2023-03-21T01:32:50.956Z,10.91
2023-03-21T01:33:30.978Z,10.94
2023-03-21T01:34:13.141Z,10.96
2023-03-21T01:34:52.176Z,10.95
2023-03-21T01:35:37.499Z,10.96
2023-03-21T01:36:26.390Z,10.96
2023-03-21T01:37:07.460Z,10.98
2023-03-21T01:38:35.285Z,11.02
2023-03-21T01:39:53.206Z,11.06
2023-03-21T01:40:32.020Z,11.08
2023-03-21T01:41:42.478Z,11.10
2023-03-21T01:43:55.458Z,11.02
2023-03-21T01:45:53.835Z,11.01
2023-03-21T01:46:51.477Z,11.04
2023-03-21T01:47:38.672Z,11.08
2023-03-21T01:48:19.766Z,11.07
2023-03-21T01:49:53.057Z,11.00
2023-03-21T01:50:33.499Z,10.94
2023-03-21T01:51:16.216Z,10.95
2023-03-21T01:52:13.049Z,10.88
2023-03-21T01:52:52.949Z,10.79
2023-03-21T01:53:41.058Z,10.88
2023-03-21T01:54:19.965Z,10.84
2023-03-21T01:55:06.053Z,10.88
2023-03-21T01:55:44.966Z,10.91
2023-03-21T01:56:33.980Z,10.80
2023-03-21T01:57:15.211Z,10.84
2023-03-21T01:58:32.102Z,10.91
2023-03-21T01:59:21.898Z,10.92
2023-03-21T02:00:15.548Z,10.99
2023-03-21T02:01:00.275Z,11.04
2023-03-21T02:01:42.351Z,11.06
2023-03-21T02:02:21.227Z,11.05
2023-03-21T02:03:13.661Z,10.99
2023-03-21T02:04:05.166Z,11.01
2023-03-21T02:04:53.759Z,11.02
2023-03-21T02:05:56.800Z,11.00
2023-03-21T02:06:51.269Z,11.01
2023-03-21T02:07:39.893Z,11.02
2023-03-21T02:08:25.851Z,11.13
2023-03-21T02:10:21.825Z,11.15
2023-03-21T02:11:01.295Z,11.03
2023-03-21T02:11:46.662Z,11.05
2023-03-21T02:12:27.446Z,11.14
2023-03-21T02:14:06.116Z,11.06
2023-03-21T02:14:46.311Z,11.07
2023-03-21T02:15:44.573Z,11.02
2023-03-21T02:17:04.294Z,10.91
2023-03-21T02:18:06.604Z,11.01
2023-03-21T02:18:45.850Z,11.05
2023-03-21T02:19:32.849Z,11.01
2023-03-21T02:20:39.467Z,11.04
2023-03-21T02:21:39.158Z,11.11
2023-03-21T02:22:51.327Z,11.20
2023-03-21T02:23:33.182Z,11.26
2023-03-21T02:24:14.900Z,11.27
2023-03-21T02:25:01.324Z,11.28
2023-03-21T02:26:21.219Z,11.38
2023-03-21T02:27:04.556Z,11.47
2023-03-21T02:28:09.440Z,11.45
2023-03-21T02:28:51.290Z,11.49
2023-03-21T02:29:32.992Z,11.39
2023-03-21T02:31:01.787Z,11.45
2023-03-21T02:32:18.115Z,11.61
2023-03-21T02:33:25.763Z,11.69
2023-03-21T02:34:46.333Z,11.77
2023-03-21T02:35:24.999Z,11.79
2023-03-21T02:36:13.903Z,11.80
2023-03-21T02:37:15.221Z,11.82
2023-03-21T02:38:31.968Z,11.89
2023-03-21T02:39:54.391Z,11.91
2023-03-21T02:40:33.179Z,11.90
2023-03-21T02:42:31.796Z,12.04
2023-03-21T02:43:40.453Z,12.08
2023-03-21T02:44:28.857Z,12.11
2023-03-21T02:46:24.407Z,11.99
2023-03-21T02:47:06.520Z,11.98
2023-03-21T02:47:58.744Z,11.97
2023-03-21T02:48:50.098Z,11.97
2023-03-21T02:49:43.990Z,12.01
2023-03-21T02:50:23.873Z,12.00
2023-03-21T02:51:13.235Z,12.04
2023-03-21T02:52:47.940Z,12.06
2023-03-21T02:54:56.724Z,12.10
2023-03-21T02:55:45.940Z,12.06
2023-03-21T02:56:24.924Z,11.94
2023-03-21T02:57:14.439Z,11.88
2023-03-21T02:57:56.983Z,11.87
2023-03-21T02:58:39.045Z,11.79
2023-03-21T02:59:25.402Z,11.85
2023-03-21T03:01:43.926Z,11.89
2023-03-21T03:02:23.257Z,11.94
2023-03-21T03:03:09.972Z,11.86
2023-03-21T03:03:50.444Z,11.85
2023-03-21T03:04:31.751Z,11.86
2023-03-21T03:05:20.381Z,11.85
2023-03-21T03:06:04.081Z,11.86
2023-03-21T03:06:42.891Z,11.87
2023-03-21T03:07:22.768Z,11.78
2023-03-21T03:08:42.888Z,11.71
2023-03-21T03:10:04.994Z,11.74
2023-03-21T03:11:06.447Z,11.77
2023-03-21T03:11:48.301Z,11.81
2023-03-21T03:12:27.080Z,11.83
2023-03-21T03:13:25.093Z,11.81
2023-03-21T03:16:43.377Z,11.81
2023-03-21T03:17:45.413Z,11.85
2023-03-21T03:19:07.212Z,11.86
2023-03-21T03:20:28.279Z,11.89
2023-03-21T03:21:45.188Z,11.87
2023-03-21T03:22:36.530Z,11.81
2023-03-21T03:23:57.064Z,11.79
2023-03-21T03:25:17.775Z,11.84
2023-03-21T03:26:43.001Z,11.87
2023-03-21T03:27:31.553Z,11.89
2023-03-21T03:30:08.130Z,11.86
2023-03-21T03:31:07.380Z,11.88
2023-03-21T03:32:07.579Z,11.87
2023-03-21T03:32:57.634Z,11.87
2023-03-21T03:33:36.064Z,11.88
2023-03-21T03:34:27.028Z,11.87
2023-03-21T03:35:18.073Z,11.84
2023-03-21T03:36:05.532Z,11.80
2023-03-21T03:36:57.954Z,11.76
2023-03-21T03:37:41.506Z,11.71
2023-03-21T03:38:22.931Z,11.71
2023-03-21T03:40:01.135Z,11.72
2023-03-21T03:40:48.977Z,11.70
2023-03-21T03:41:29.416Z,11.69
2023-03-21T03:42:27.959Z,11.69
2023-03-21T03:43:11.085Z,11.71
2023-03-21T03:43:57.988Z,11.56
2023-03-21T03:44:36.925Z,11.59
2023-03-21T03:46:21.051Z,11.36
2023-03-21T03:48:01.164Z,11.43
2023-03-21T03:49:31.296Z,11.44
2023-03-21T03:50:10.071Z,11.45
2023-03-21T03:51:02.630Z,11.44
2023-03-21T03:52:31.710Z,11.27
2023-03-21T03:53:27.118Z,11.32
2023-03-21T03:54:50.010Z,11.33
2023-03-21T03:55:34.778Z,11.33
2023-03-21T03:56:52.083Z,11.30
2023-03-21T03:57:31.582Z,11.29
2023-03-21T03:59:29.086Z,11.22
2023-03-21T04:00:13.898Z,11.19
2023-03-21T04:00:52.898Z,11.17
2023-03-21T04:01:32.070Z,11.17
2023-03-21T04:02:12.577Z,11.08
2023-03-21T04:03:48.477Z,11.08
2023-03-21T04:04:29.908Z,11.07
2023-03-21T04:05:09.773Z,11.04
2023-03-21T04:05:48.324Z,11.05
2023-03-21T04:06:29.007Z,11.06
2023-03-21T04:07:09.127Z,11.05
2023-03-21T04:07:51.289Z,10.84
2023-03-21T04:08:33.176Z,10.76
2023-03-21T04:09:20.490Z,10.78
2023-03-21T04:10:05.472Z,10.82
2023-03-21T04:10:44.536Z,10.71
2023-03-21T04:11:24.388Z,10.68
2023-03-21T04:12:03.963Z,10.71
2023-03-21T04:12:51.879Z,10.72
2023-03-21T04:13:33.973Z,10.65
2023-03-21T04:14:13.446Z,10.63
2023-03-21T04:15:17.456Z,10.74
2023-03-21T04:17:36.829Z,10.81
2023-03-21T04:19:10.476Z,10.83
2023-03-21T04:21:29.997Z,10.58
2023-03-21T04:22:09.932Z,10.60
2023-03-21T04:22:51.355Z,10.65
2023-03-21T04:23:30.131Z,10.67
2023-03-21T04:24:09.433Z,10.66
2023-03-21T04:24:50.518Z,10.63
2023-03-21T04:25:44.715Z,10.55
2023-03-21T04:26:33.154Z,10.48
2023-03-21T04:27:14.059Z,10.51
2023-03-21T04:28:00.982Z,10.52
2023-03-21T04:28:39.851Z,10.54
2023-03-21T04:29:30.089Z,10.56
2023-03-21T04:31:05.200Z,10.54
2023-03-21T04:33:26.480Z,10.57
2023-03-21T04:34:06.051Z,10.58
2023-03-21T04:34:55.152Z,10.57
2023-03-21T04:36:50.563Z,10.55
2023-03-21T04:37:33.946Z,10.56
2023-03-21T04:38:14.052Z,10.59
2023-03-21T04:38:54.183Z,10.61
2023-03-21T04:39:34.020Z,10.55
2023-03-21T04:40:20.086Z,10.53
2023-03-21T04:41:00.704Z,10.48
2023-03-21T04:41:45.549Z,10.43
2023-03-21T04:42:35.314Z,10.46
2023-03-21T04:43:26.306Z,10.36
2023-03-21T04:44:45.065Z,10.44
2023-03-21T04:45:24.409Z,10.44
2023-03-21T04:46:53.034Z,10.41
2023-03-21T04:47:32.293Z,10.43
2023-03-21T04:48:11.108Z,10.43
2023-03-21T04:48:50.921Z,10.41
2023-03-21T04:49:24.281Z,10.38
2023-03-21T04:50:11.354Z,10.38
2023-03-21T04:50:51.464Z,10.39
2023-03-21T04:51:31.320Z,10.37
2023-03-21T04:52:09.311Z,10.41
2023-03-21T04:52:56.527Z,10.34
2023-03-21T04:53:40.979Z,10.34
2023-03-21T04:54:19.554Z,10.47
2023-03-21T04:55:37.200Z,10.43
2023-03-21T04:56:34.510Z,10.47
2023-03-21T04:57:14.223Z,10.49
2023-03-21T04:57:53.325Z,10.51
2023-03-21T04:58:39.953Z,10.45
2023-03-21T04:59:22.275Z,10.33
2023-03-21T05:00:10.668Z,10.38
2023-03-21T05:01:03.077Z,10.42
2023-03-21T05:01:50.414Z,10.37
2023-03-21T05:02:32.336Z,10.39
2023-03-21T05:03:21.738Z,10.32
2023-03-21T05:04:02.194Z,10.10
2023-03-21T05:05:43.118Z,10.26
2023-03-21T05:06:21.573Z,10.31
2023-03-21T05:07:04.474Z,10.34
2023-03-21T05:07:43.340Z,10.20
2023-03-21T05:08:22.535Z,10.22
2023-03-21T05:09:07.281Z,10.21
2023-03-21T05:09:46.451Z,10.30
2023-03-21T05:11:05.359Z,10.38
2023-03-21T05:11:52.626Z,10.34
2023-03-21T05:12:32.424Z,10.42
2023-03-21T05:13:12.070Z,10.44
2023-03-21T05:13:50.306Z,10.47
2023-03-21T05:14:29.479Z,10.51
2023-03-21T05:15:08.014Z,10.56
2023-03-21T05:15:50.562Z,10.62
2023-03-21T05:16:48.882Z,10.43
2023-03-21T05:17:28.600Z,10.43
2023-03-21T05:18:11.285Z,10.55
2023-03-21T05:18:51.804Z,10.59
2023-03-21T05:19:40.707Z,10.64
2023-03-21T05:20:30.041Z,10.63
2023-03-21T05:21:10.889Z,10.64
2023-03-21T05:21:50.765Z,10.67
2023-03-21T05:22:54.899Z,10.70
2023-03-21T05:25:45.925Z,10.83
2023-03-21T05:26:28.385Z,10.70
2023-03-21T05:27:07.101Z,10.64
2023-03-21T05:27:54.258Z,10.68
2023-03-21T05:28:36.340Z,10.76
2023-03-21T05:29:14.374Z,10.81
2023-03-21T05:29:50.174Z,10.82
2023-03-21T05:30:33.002Z,10.83
2023-03-21T05:31:22.073Z,10.86
2023-03-21T05:32:04.148Z,10.90
2023-03-21T05:32:43.382Z,10.91
2023-03-21T05:33:32.375Z,10.96
2023-03-21T05:34:15.478Z,10.96
2023-03-21T05:35:33.392Z,11.00
2023-03-21T05:36:25.342Z,11.03
2023-03-21T05:38:19.089Z,11.12
2023-03-21T05:40:59.494Z,11.17
2023-03-21T05:41:41.328Z,11.21
2023-03-21T05:42:21.206Z,11.24
2023-03-21T05:43:04.092Z,11.24
2023-03-21T05:44:09.140Z,11.34
2023-03-21T05:44:49.196Z,11.39
2023-03-21T05:45:36.806Z,11.45
2023-03-21T05:46:15.485Z,11.47
2023-03-21T05:46:55.130Z,11.51
2023-03-21T05:47:34.160Z,11.54
2023-03-21T05:48:54.177Z,11.60
2023-03-21T05:49:33.683Z,11.63
2023-03-21T05:50:13.706Z,11.65
2023-03-21T05:51:02.008Z,11.67
2023-03-21T05:51:42.429Z,11.69
2023-03-21T05:52:31.357Z,11.77
2023-03-21T05:53:34.924Z,11.87
2023-03-21T05:54:54.350Z,11.97
2023-03-21T05:56:13.429Z,12.05
2023-03-21T05:58:35.504Z,12.08
2023-03-21T05:59:42.021Z,12.09
2023-03-21T06:00:22.272Z,12.15
2023-03-21T06:01:01.368Z,12.18
2023-03-21T06:01:40.502Z,12.23
2023-03-21T06:02:28.087Z,12.29
2023-03-21T06:03:10.220Z,12.30
2023-03-21T06:03:50.481Z,12.33
2023-03-21T06:05:18.349Z,12.34
2023-03-21T06:05:57.074Z,12.38
2023-03-21T06:06:46.273Z,12.46
2023-03-21T06:08:16.708Z,12.48
2023-03-21T06:09:34.427Z,12.40
2023-03-21T06:10:14.435Z,12.44
2023-03-21T06:12:36.877Z,12.44
2023-03-21T06:13:24.266Z,12.54
2023-03-21T06:14:49.791Z,12.57
2023-03-21T06:15:28.115Z,12.60
2023-03-21T06:16:10.561Z,12.67
2023-03-21T06:16:59.345Z,12.68
2023-03-21T06:17:37.526Z,12.65
2023-03-21T06:18:19.425Z,12.70
2023-03-21T06:19:06.999Z,12.79
2023-03-21T06:19:49.581Z,12.76
2023-03-21T06:20:41.408Z,12.74
2023-03-21T06:22:19.114Z,12.77
2023-03-21T06:22:59.119Z,12.82
2023-03-21T06:24:19.241Z,12.79
2023-03-21T06:24:58.553Z,12.75
2023-03-21T06:29:48.064Z,12.96
2023-03-21T06:30:37.295Z,12.93
2023-03-21T06:31:16.289Z,12.99
2023-03-21T06:32:07.589Z,12.88
2023-03-21T06:32:47.426Z,12.89
2023-03-21T06:33:26.752Z,12.93
2023-03-21T06:34:06.682Z,12.88
2023-03-21T06:34:47.343Z,12.82
2023-03-21T06:35:26.608Z,12.91
2023-03-21T06:36:31.696Z,12.91
2023-03-21T06:38:13.781Z,12.90
2023-03-21T06:39:17.814Z,12.99
2023-03-21T06:39:57.477Z,13.00
2023-03-21T06:40:36.374Z,13.05
2023-03-21T06:41:17.901Z,13.09
2023-03-21T06:42:06.149Z,13.07
2023-03-21T06:44:00.576Z,13.04
2023-03-21T06:44:49.262Z,13.05
2023-03-21T06:45:29.000Z,12.93
2023-03-21T06:46:55.097Z,13.03
2023-03-21T06:47:59.642Z,12.96
2023-03-21T06:48:47.390Z,13.04
2023-03-21T06:49:37.609Z,13.07
2023-03-21T06:50:16.694Z,13.10
2023-03-21T06:50:56.987Z,13.16
2023-03-21T06:51:36.048Z,13.11
2023-03-21T06:52:27.628Z,13.02
2023-03-21T06:53:07.541Z,12.98
2023-03-21T06:53:56.408Z,13.09
2023-03-21T06:54:36.356Z,13.17
2023-03-21T06:55:27.103Z,13.22
2023-03-21T06:56:32.349Z,13.26
2023-03-21T06:57:03.967Z,13.34
2023-03-21T06:57:44.681Z,13.33
2023-03-21T07:00:59.060Z,13.19
2023-03-21T07:01:38.643Z,13.25
2023-03-21T07:03:19.394Z,13.36
2023-03-21T07:03:59.629Z,13.37
2023-03-21T07:06:11.952Z,13.41
2023-03-21T07:08:31.732Z,13.53
2023-03-21T07:09:28.150Z,13.46
2023-03-21T07:11:32.592Z,13.47
2023-03-21T07:12:11.690Z,13.56
2023-03-21T07:15:10.056Z,13.64
2023-03-21T07:15:49.694Z,13.79
2023-03-21T07:17:05.005Z,13.91
2023-03-21T07:18:49.317Z,13.98
2023-03-21T07:20:47.199Z,14.00
2023-03-21T07:21:34.987Z,14.07
2023-03-21T07:24:02.912Z,14.13
2023-03-21T07:25:04.262Z,14.08
2023-03-21T07:25:52.823Z,14.10
2023-03-21T07:26:33.551Z,13.97
2023-03-21T07:27:25.561Z,13.99
2023-03-21T07:28:09.338Z,14.08
2023-03-21T07:28:58.304Z,14.15
2023-03-21T07:29:47.372Z,14.19
2023-03-21T07:30:39.780Z,14.28
2023-03-21T07:31:19.921Z,14.30
2023-03-21T07:31:59.079Z,14.27
2023-03-21T07:33:43.196Z,14.19
2023-03-21T07:34:22.905Z,14.21
2023-03-21T07:35:01.964Z,14.34
2023-03-21T07:35:44.509Z,14.28
2023-03-21T07:36:26.661Z,14.29
2023-03-21T07:37:17.047Z,14.25
2023-03-21T07:39:28.679Z,14.42
2023-03-21T07:43:59.757Z,14.50
2023-03-21T07:45:25.644Z,14.70
2023-03-21T07:47:26.480Z,14.49
2023-03-21T07:49:03.314Z,14.54
2023-03-21T07:49:52.544Z,14.62
2023-03-21T07:50:57.626Z,14.63
2023-03-21T07:54:23.067Z,14.57
2023-03-21T07:55:11.041Z,14.65
2023-03-21T07:56:01.145Z,14.49
2023-03-21T07:56:42.986Z,14.60
2023-03-21T07:57:51.618Z,14.74
2023-03-21T07:59:52.646Z,14.62
2023-03-21T08:00:32.242Z,14.73
2023-03-21T08:01:26.948Z,14.74
2023-03-21T08:02:07.482Z,14.84
2023-03-21T08:02:57.857Z,14.84
2023-03-21T08:03:40.661Z,14.64
2023-03-21T08:04:22.848Z,14.44
2023-03-21T08:05:12.989Z,14.38
2023-03-21T08:05:53.216Z,14.37
2023-03-21T08:06:33.206Z,14.42
2023-03-21T08:07:15.585Z,14.49
2023-03-21T08:08:48.770Z,14.48
2023-03-21T08:10:31.221Z,14.52
2023-03-21T08:12:48.234Z,14.89
2023-03-21T08:13:31.683Z,14.93
2023-03-21T08:16:12.706Z,15.01
2023-03-21T08:17:04.917Z,15.12
2023-03-21T08:17:54.310Z,15.22
2023-03-21T08:18:57.830Z,15.19
2023-03-21T08:20:28.028Z,15.26
2023-03-21T08:21:10.871Z,15.30
2023-03-21T08:21:52.334Z,15.32
2023-03-21T08:26:19.147Z,15.15
2023-03-21T08:28:31.634Z,15.41
2023-03-21T08:34:03.059Z,15.72
2023-03-21T08:34:43.518Z,15.80
2023-03-21T08:36:35.107Z,15.77
2023-03-21T08:37:55.438Z,15.87
2023-03-21T08:39:13.233Z,15.91
2023-03-21T08:40:02.288Z,15.83
2023-03-21T08:43:24.991Z,16.20
2023-03-21T08:44:34.919Z,16.06
2023-03-21T08:46:16.191Z,16.27
2023-03-21T08:46:56.976Z,16.31
2023-03-21T08:47:28.769Z,16.38
2023-03-21T08:52:40.179Z,16.20
2023-03-21T08:53:23.052Z,16.38
2023-03-21T08:54:52.298Z,16.32
2023-03-21T08:55:43.678Z,16.43
2023-03-21T08:57:17.520Z,16.32
2023-03-21T08:57:58.699Z,16.44
2023-03-21T08:58:46.165Z,16.43
2023-03-21T08:59:28.699Z,16.43
2023-03-21T09:00:21.944Z,16.37
2023-03-21T09:01:42.257Z,16.25
2023-03-21T09:03:27.528Z,16.48
2023-03-21T09:04:08.558Z,16.53
2023-03-21T09:04:59.092Z,16.43
2023-03-21T09:06:30.054Z,16.60
2023-03-21T09:07:18.204Z,16.73
2023-03-21T09:08:04.568Z,16.75
2023-03-21T09:08:43.567Z,16.78
2023-03-21T09:09:30.463Z,16.74
2023-03-21T09:10:20.220Z,16.87
2023-03-21T09:11:13.308Z,16.65
2023-03-21T09:12:45.683Z,16.89
2023-03-21T09:13:26.742Z,17.00
2023-03-21T09:14:10.022Z,16.97
2023-03-21T09:14:59.315Z,17.04
2023-03-21T09:15:41.680Z,16.98
2023-03-21T09:18:00.744Z,17.34
2023-03-21T09:19:35.286Z,17.44
2023-03-21T09:20:26.507Z,17.57
2023-03-21T09:21:13.002Z,17.76
2023-03-21T09:21:52.329Z,17.64
2023-03-21T09:22:31.356Z,17.53
2023-03-21T09:23:03.273Z,17.54
2023-03-21T09:24:23.474Z,17.76
2023-03-21T09:25:08.489Z,17.30
2023-03-21T09:27:28.337Z,17.42
2023-03-21T09:28:08.720Z,17.47
2023-03-21T09:28:50.738Z,17.40
2023-03-21T09:29:32.579Z,16.95
2023-03-21T09:30:25.573Z,17.06
2023-03-21T09:31:11.744Z,17.10
2023-03-21T09:31:54.528Z,17.18
2023-03-21T09:32:46.416Z,17.22
2023-03-21T09:33:26.621Z,16.93
2023-03-21T09:34:05.747Z,17.13
2023-03-21T09:34:46.858Z,17.25
2023-03-21T09:35:31.538Z,17.31
2023-03-21T09:36:14.430Z,16.98
2023-03-21T09:38:10.024Z,17.42
2023-03-21T09:38:59.858Z,17.34
2023-03-21T09:40:21.456Z,17.55
2023-03-21T09:41:11.993Z,17.61
2023-03-21T09:42:08.621Z,17.52
2023-03-21T09:43:10.833Z,17.54
2023-03-21T09:44:12.734Z,17.52
2023-03-21T09:44:52.038Z,17.59
2023-03-21T09:45:52.704Z,17.52
2023-03-21T09:47:29.517Z,17.70
2023-03-21T09:48:36.074Z,17.77
2023-03-21T09:49:20.156Z,17.54
2023-03-21T09:50:20.733Z,17.49
2023-03-21T09:51:15.952Z,17.69
2023-03-21T09:52:06.040Z,17.85
2023-03-21T09:52:58.832Z,17.76
2023-03-21T09:53:44.426Z,17.47
2023-03-21T09:54:48.341Z,17.58
2023-03-21T09:55:39.714Z,17.77
2023-03-21T09:56:33.414Z,17.80
2023-03-21T09:57:54.111Z,17.77
2023-03-21T09:58:53.219Z,17.68
2023-03-21T09:59:59.167Z,17.80
2023-03-21T10:02:41.778Z,17.56
2023-03-21T10:05:59.979Z,17.56
2023-03-21T10:06:41.498Z,17.74
2023-03-21T10:07:25.102Z,17.38
2023-03-21T10:08:06.449Z,17.47
2023-03-21T10:08:49.782Z,17.77
2023-03-21T10:09:32.821Z,17.90
2023-03-21T10:10:29.088Z,17.77
2023-03-21T10:12:51.382Z,17.58
2023-03-21T10:13:32.012Z,17.70
2023-03-21T10:14:39.844Z,17.58
2023-03-21T10:16:14.543Z,17.95
2023-03-21T10:17:22.357Z,18.10
2023-03-21T10:18:06.181Z,18.05
2023-03-21T10:18:54.543Z,18.07
2023-03-21T10:20:29.992Z,18.12
2023-03-21T10:21:43.040Z,17.97
2023-03-21T10:22:29.702Z,18.13
2023-03-21T10:23:33.284Z,18.21
2023-03-21T10:24:37.642Z,18.08
2023-03-21T10:26:21.575Z,18.23
2023-03-21T10:26:56.738Z,18.36
2023-03-21T10:27:46.812Z,18.48
2023-03-21T10:29:50.501Z,18.36
2023-03-21T10:30:53.751Z,18.26
2023-03-21T10:31:57.804Z,18.05
2023-03-21T10:34:16.415Z,17.69
2023-03-21T10:36:02.493Z,18.02
2023-03-21T10:37:29.723Z,18.20
2023-03-21T10:38:09.905Z,18.15
2023-03-21T10:41:03.027Z,18.43
2023-03-21T10:41:44.759Z,18.65
2023-03-21T10:42:50.408Z,18.55
2023-03-21T10:43:41.151Z,18.40
2023-03-21T10:44:47.127Z,18.71
2023-03-21T10:48:59.394Z,18.94
2023-03-21T10:49:40.259Z,19.06
2023-03-21T10:50:18.065Z,19.10
2023-03-21T10:53:22.425Z,18.82
2023-03-21T10:55:32.310Z,17.94
2023-03-21T10:56:15.327Z,18.44
2023-03-21T10:57:09.624Z,18.54
2023-03-21T10:58:19.080Z,18.31
2023-03-21T10:58:58.464Z,18.11
2023-03-21T10:59:47.320Z,18.43
2023-03-21T11:00:27.531Z,18.71
2023-03-21T11:01:15.119Z,18.87
2023-03-21T11:05:40.799Z,18.95
2023-03-21T11:06:32.715Z,19.02
2023-03-21T11:09:47.003Z,18.77
2023-03-21T11:12:57.562Z,18.67
2023-03-21T11:14:34.168Z,18.81
2023-03-21T11:15:41.811Z,18.90
2023-03-21T11:16:27.610Z,18.97
2023-03-21T11:19:14.570Z,19.10
2023-03-21T11:24:50.660Z,18.89
2023-03-21T11:25:42.037Z,18.86
2023-03-21T11:26:31.327Z,19.07
2023-03-21T11:27:12.924Z,19.06
2023-03-21T11:30:17.437Z,18.44
2023-03-21T11:31:25.042Z,18.83
2023-03-21T11:32:05.266Z,18.70
2023-03-21T11:32:46.292Z,18.83
2023-03-21T11:33:32.853Z,18.96
2023-03-21T11:34:39.314Z,19.03
2023-03-21T11:35:32.833Z,18.87
2023-03-21T11:36:23.922Z,18.79
2023-03-21T11:38:04.211Z,19.00
2023-03-21T11:38:44.058Z,18.92
2023-03-21T11:39:49.647Z,19.01
2023-03-21T11:40:52.037Z,19.21
2023-03-21T11:41:31.610Z,19.10
2023-03-21T11:42:48.477Z,19.14
2023-03-21T11:45:12.067Z,18.86
2023-03-21T11:46:04.492Z,19.11
2023-03-21T11:46:43.536Z,19.13
2023-03-21T11:47:22.931Z,19.10
2023-03-21T11:49:31.873Z,18.94
2023-03-21T11:50:24.700Z,18.97
2023-03-21T11:51:04.398Z,18.89
2023-03-21T11:52:08.767Z,19.01
2023-03-21T11:53:50.905Z,18.89
2023-03-21T11:55:06.101Z,19.08
2023-03-21T11:56:01.938Z,19.13
2023-03-21T11:56:47.714Z,19.08
2023-03-21T11:57:34.759Z,19.13
2023-03-21T11:59:33.695Z,19.06
2023-03-21T12:01:41.947Z,18.99
2023-03-21T12:02:23.430Z,18.94
2023-03-21T12:03:11.390Z,19.03
2023-03-21T12:04:18.632Z,18.83
2023-03-21T12:05:56.260Z,18.84
2023-03-21T12:06:55.365Z,19.02
2023-03-21T12:07:44.773Z,19.12
2023-03-21T12:11:03.529Z,19.50
2023-03-21T12:12:03.593Z,19.47
2023-03-21T12:13:01.354Z,19.17
2023-03-21T12:13:46.603Z,19.48
2023-03-21T12:15:03.922Z,19.58
2023-03-21T12:16:16.337Z,19.53
2023-03-21T12:17:33.583Z,19.14
2023-03-21T12:18:45.334Z,19.41
2023-03-21T12:19:25.422Z,19.59
2023-03-21T12:20:29.256Z,19.76
2023-03-21T12:21:20.864Z,19.87
2023-03-21T12:22:58.035Z,19.50
2023-03-21T12:24:35.839Z,19.76
2023-03-21T12:25:14.439Z,19.83
2023-03-21T12:26:12.604Z,19.79
2023-03-21T12:29:27.464Z,19.67
2023-03-21T12:31:02.004Z,19.71
2023-03-21T12:32:33.844Z,19.31
2023-03-21T12:33:24.392Z,19.35
2023-03-21T12:34:30.934Z,19.50
2023-03-21T12:35:19.016Z,19.34
2023-03-21T12:36:13.188Z,19.17
2023-03-21T12:37:42.866Z,19.63
2023-03-21T12:38:32.849Z,19.76
2023-03-21T12:39:39.188Z,19.62
2023-03-21T12:41:31.391Z,19.37
2023-03-21T12:42:18.622Z,19.44
2023-03-21T12:43:37.638Z,19.53
2023-03-21T12:44:24.399Z,19.48
2023-03-21T12:46:54.804Z,19.35
2023-03-21T12:48:53.994Z,19.48
2023-03-21T12:50:57.998Z,19.23
2023-03-21T12:54:10.228Z,19.15
2023-03-21T12:55:21.693Z,18.88
2023-03-21T12:56:59.252Z,18.97
2023-03-21T12:57:54.834Z,18.78
2023-03-21T12:58:50.289Z,18.84
2023-03-21T13:00:14.498Z,18.83
2023-03-21T13:00:53.624Z,18.70
2023-03-21T13:01:39.966Z,18.72
2023-03-21T13:02:43.960Z,18.69
2023-03-21T13:03:42.041Z,18.49
2023-03-21T13:04:49.713Z,18.33
2023-03-21T13:05:56.672Z,18.29
2023-03-21T13:07:50.864Z,18.39
2023-03-21T13:08:31.630Z,18.27
2023-03-21T13:09:41.197Z,18.50
2023-03-21T13:10:24.348Z,18.49
2023-03-21T13:11:06.796Z,18.38
2023-03-21T13:11:55.470Z,18.53
2023-03-21T13:13:31.349Z,18.62
2023-03-21T13:14:22.184Z,18.70
2023-03-21T13:15:03.533Z,18.74
2023-03-21T13:15:51.403Z,18.78
2023-03-21T13:16:30.854Z,18.88
2023-03-21T13:17:29.343Z,18.84
2023-03-21T13:19:09.343Z,18.67
2023-03-21T13:20:40.060Z,18.71
2023-03-21T13:22:11.739Z,18.46
2023-03-21T13:23:02.048Z,18.47
2023-03-21T13:24:01.059Z,18.57
2023-03-21T13:24:50.420Z,18.55
2023-03-21T13:25:35.703Z,18.67
2023-03-21T13:26:32.271Z,18.76
2023-03-21T13:27:37.112Z,18.78
2023-03-21T13:29:12.423Z,18.90
2023-03-21T13:30:01.096Z,19.06
2023-03-21T13:30:41.857Z,19.20
2023-03-21T13:31:50.901Z,19.37
2023-03-21T13:32:56.489Z,19.26
2023-03-21T13:33:49.913Z,19.44
2023-03-21T13:36:08.292Z,19.60
2023-03-21T13:37:35.415Z,19.33
2023-03-21T13:39:04.731Z,19.18
2023-03-21T13:39:49.969Z,19.20
2023-03-21T13:40:28.708Z,19.26
2023-03-21T13:41:40.746Z,19.03
2023-03-21T13:43:19.034Z,18.77
2023-03-21T13:44:22.995Z,18.69
2023-03-21T13:45:03.442Z,18.46
2023-03-21T13:46:07.988Z,18.61
2023-03-21T13:48:27.188Z,18.85
2023-03-21T13:49:10.037Z,18.84
2023-03-21T13:50:18.393Z,18.98
2023-03-21T13:50:56.594Z,19.00
2023-03-21T13:51:37.027Z,19.03
2023-03-21T13:52:28.250Z,19.03
2023-03-21T13:53:29.961Z,18.71
2023-03-21T13:54:21.853Z,19.06